createdAt,value
2018-10-19T00:00:12.368Z,67.61
2018-10-19T00:00:52.708Z,67.74
2018-10-19T00:01:32.900Z,68.05
2018-10-19T00:02:12.581Z,67.85
2018-10-19T00:02:53.017Z,67.86
2018-10-19T00:03:33.199Z,67.74
2018-10-19T00:04:13.553Z,68.09
2018-10-19T00:04:53.942Z,67.72
2018-10-19T00:05:34.498Z,67.99
2018-10-19T00:06:14.960Z,67.67
2018-10-19T00:06:54.732Z,67.88
2018-10-19T00:07:35.039Z,67.70
2018-10-19T00:08:16.498Z,67.86
2018-10-19T00:08:56.098Z,67.82
2018-10-19T00:09:36.101Z,67.52
2018-10-19T00:10:15.748Z,67.73
2018-10-19T00:10:56.054Z,67.68
2018-10-19T00:11:36.798Z,67.95
2018-10-19T00:12:16.724Z,67.99
2018-10-19T00:12:57.132Z,68.06
2018-10-19T00:13:37.572Z,67.79
2018-10-19T00:14:17.151Z,68.10
2018-10-19T00:14:57.423Z,68.23
2018-10-19T00:15:37.179Z,68.10
2018-10-19T00:16:16.939Z,67.90
2018-10-19T00:16:56.688Z,68.10
2018-10-19T00:17:36.672Z,67.98
2018-10-19T00:18:16.821Z,67.62
2018-10-19T00:18:56.392Z,68.04
2018-10-19T00:19:35.968Z,67.98
2018-10-19T00:20:15.783Z,68.04
2018-10-19T00:20:55.395Z,68.32
2018-10-19T00:21:35.265Z,68.33
2018-10-19T00:22:14.897Z,68.29
2018-10-19T00:22:54.551Z,68.26
2018-10-19T00:23:34.593Z,68.15
2018-10-19T00:24:15.012Z,67.88
2018-10-19T00:24:54.736Z,68.05
2018-10-19T00:25:34.388Z,68.11
2018-10-19T00:26:14.225Z,68.32
2018-10-19T00:26:54.332Z,67.94
2018-10-19T00:27:34.061Z,68.29
2018-10-19T00:28:13.662Z,68.35
2018-10-19T00:28:53.297Z,68.33
2018-10-19T00:29:33.256Z,68.36
2018-10-19T00:30:13.631Z,68.40
2018-10-19T00:30:53.284Z,68.22
2018-10-19T00:31:33.588Z,68.16
2018-10-19T00:32:13.924Z,67.92
2018-10-19T00:32:53.665Z,68.31
2018-10-19T00:33:33.373Z,68.23
2018-10-19T00:34:12.965Z,68.03
2018-10-19T00:34:52.738Z,68.01
2018-10-19T00:35:32.491Z,67.87
2018-10-19T00:36:12.113Z,67.98
2018-10-19T00:36:51.983Z,68.34
2018-10-19T00:37:31.908Z,68.39
2018-10-19T00:38:11.727Z,68.36
2018-10-19T00:38:51.292Z,68.29
2018-10-19T00:39:30.816Z,68.10
2018-10-19T00:40:10.551Z,68.53
2018-10-19T00:40:50.193Z,67.98
2018-10-19T00:41:29.963Z,68.48
2018-10-19T00:42:09.651Z,68.50
2018-10-19T00:42:49.405Z,68.42
2018-10-19T00:43:30.577Z,68.67
2018-10-19T00:44:10.364Z,68.55
2018-10-19T00:44:50.064Z,68.48
2018-10-19T00:45:34.925Z,68.17
2018-10-19T00:46:14.721Z,68.07
2018-10-19T00:46:54.304Z,68.43
2018-10-19T00:47:33.873Z,68.43
2018-10-19T00:48:16.741Z,68.29
2018-10-19T00:48:56.345Z,68.41
2018-10-19T00:49:35.910Z,68.59
2018-10-19T00:50:15.623Z,68.54
2018-10-19T00:50:55.478Z,68.63
2018-10-19T00:51:35.309Z,68.49
2018-10-19T00:52:15.100Z,68.63
2018-10-19T00:52:54.706Z,68.45
2018-10-19T00:53:34.460Z,68.50
2018-10-19T00:54:14.220Z,68.63
2018-10-19T00:54:54.187Z,68.66
2018-10-19T00:55:33.950Z,68.68
2018-10-19T00:56:13.887Z,68.29
2018-10-19T00:56:53.661Z,68.80
2018-10-19T00:57:33.492Z,68.74
2018-10-19T00:58:13.278Z,68.73
2018-10-19T00:58:53.030Z,68.82
2018-10-19T00:59:33.307Z,68.91
2018-10-19T01:00:13.288Z,69.13
2018-10-19T01:00:52.853Z,68.85
2018-10-19T01:01:32.664Z,69.25
2018-10-19T01:02:12.410Z,68.99
2018-10-19T01:02:52.117Z,69.26
2018-10-19T01:03:31.949Z,69.46
2018-10-19T01:04:11.633Z,69.35
2018-10-19T01:04:51.901Z,69.34
2018-10-19T01:05:32.236Z,68.89
2018-10-19T01:06:12.368Z,69.27
2018-10-19T01:06:52.052Z,69.62
2018-10-19T01:07:31.877Z,69.05
2018-10-19T01:08:11.637Z,69.21
2018-10-19T01:08:51.447Z,69.18
2018-10-19T01:09:31.284Z,69.21
2018-10-19T01:10:15.096Z,69.53
2018-10-19T01:10:54.801Z,69.39
2018-10-19T01:11:34.915Z,69.63
2018-10-19T01:12:14.470Z,69.67
2018-10-19T01:12:57.162Z,69.69
2018-10-19T01:13:36.764Z,69.39
2018-10-19T01:14:16.512Z,69.67
2018-10-19T01:14:56.154Z,69.41
2018-10-19T01:15:36.080Z,69.34
2018-10-19T01:16:15.626Z,69.11
2018-10-19T01:16:55.337Z,69.22
2018-10-19T01:17:35.397Z,69.32
2018-10-19T01:18:15.034Z,69.14
2018-10-19T01:18:54.892Z,69.21
2018-10-19T01:19:34.815Z,69.53
2018-10-19T01:20:14.789Z,69.36
2018-10-19T01:20:54.338Z,69.29
2018-10-19T01:21:34.421Z,69.53
2018-10-19T01:22:14.664Z,69.52
2018-10-19T01:22:54.424Z,69.55
2018-10-19T01:23:34.244Z,69.47
2018-10-19T01:24:14.007Z,69.80
2018-10-19T01:24:53.733Z,69.65
2018-10-19T01:25:33.361Z,69.71
2018-10-19T01:26:13.004Z,69.39
2018-10-19T01:26:52.756Z,69.63
2018-10-19T01:27:32.596Z,69.55
2018-10-19T01:28:12.775Z,69.80
2018-10-19T01:28:52.770Z,69.48
2018-10-19T01:29:32.474Z,69.65
2018-10-19T01:30:12.247Z,69.35
2018-10-19T01:30:51.840Z,69.48
2018-10-19T01:31:31.438Z,69.48
2018-10-19T01:32:11.182Z,69.66
2018-10-19T01:32:51.039Z,69.54
2018-10-19T01:33:30.808Z,69.25
2018-10-19T01:34:10.441Z,69.12
2018-10-19T01:34:50.179Z,69.02
2018-10-19T01:35:29.749Z,69.17
2018-10-19T01:36:09.812Z,69.06
2018-10-19T01:36:49.480Z,68.95
2018-10-19T01:37:29.068Z,68.97
2018-10-19T01:38:08.736Z,69.47
2018-10-19T01:38:48.667Z,69.51
2018-10-19T01:39:28.213Z,69.51
2018-10-19T01:40:10.280Z,69.45
2018-10-19T01:40:50.149Z,69.42
2018-10-19T01:41:29.709Z,69.39
2018-10-19T01:42:09.369Z,69.56
2018-10-19T01:42:49.095Z,69.59
2018-10-19T01:43:29.148Z,69.64
2018-10-19T01:44:09.760Z,69.65
2018-10-19T01:44:49.459Z,69.49
2018-10-19T01:45:29.716Z,69.49
2018-10-19T01:46:09.455Z,69.51
2018-10-19T01:46:50.411Z,69.23
2018-10-19T01:47:30.115Z,69.24
2018-10-19T01:48:10.023Z,69.51
2018-10-19T01:48:49.593Z,69.41
2018-10-19T01:49:29.394Z,69.57
2018-10-19T01:50:09.997Z,69.40
2018-10-19T01:50:49.564Z,69.67
2018-10-19T01:51:29.248Z,69.70
2018-10-19T01:52:08.873Z,69.88
2018-10-19T01:52:48.530Z,69.66
2018-10-19T01:53:28.566Z,69.76
2018-10-19T01:54:08.213Z,69.77
2018-10-19T01:54:47.896Z,69.48
2018-10-19T01:55:27.573Z,69.24
2018-10-19T01:56:07.209Z,69.19
2018-10-19T01:56:46.892Z,69.08
2018-10-19T01:57:26.570Z,69.25
2018-10-19T01:58:06.280Z,69.09
2018-10-19T01:58:46.041Z,69.13
2018-10-19T01:59:25.740Z,68.80
2018-10-19T02:00:06.634Z,69.45
2018-10-19T02:00:46.324Z,69.55
2018-10-19T02:01:25.937Z,69.62
2018-10-19T02:02:06.481Z,69.53
2018-10-19T02:02:46.105Z,69.67
2018-10-19T02:03:25.845Z,69.57
2018-10-19T02:04:05.573Z,69.85
2018-10-19T02:04:45.224Z,69.92
2018-10-19T02:05:24.852Z,69.88
2018-10-19T02:06:04.956Z,69.83
2018-10-19T02:06:45.152Z,69.82
2018-10-19T02:07:24.848Z,69.66
2018-10-19T02:08:04.780Z,69.93
2018-10-19T02:08:44.595Z,70.14
2018-10-19T02:09:24.206Z,69.83
2018-10-19T02:10:03.785Z,70.12
2018-10-19T02:10:43.432Z,70.02
2018-10-19T02:11:23.117Z,70.02
2018-10-19T02:12:02.864Z,70.10
2018-10-19T02:12:42.728Z,69.90
2018-10-19T02:13:22.838Z,69.59
2018-10-19T02:14:02.603Z,69.68
2018-10-19T02:14:42.342Z,69.75
2018-10-19T02:15:21.919Z,69.37
2018-10-19T02:16:01.615Z,69.69
2018-10-19T02:16:41.662Z,69.55
2018-10-19T02:17:21.245Z,69.56
2018-10-19T02:18:01.063Z,69.65
2018-10-19T02:18:40.592Z,69.61
2018-10-19T02:19:20.285Z,69.60
2018-10-19T02:20:00.100Z,69.44
2018-10-19T02:20:40.232Z,69.27
2018-10-19T02:21:19.926Z,69.09
2018-10-19T02:21:59.606Z,69.01
2018-10-19T02:22:39.440Z,69.11
2018-10-19T02:23:19.251Z,68.83
2018-10-19T02:23:59.068Z,69.07
2018-10-19T02:24:38.840Z,69.06
2018-10-19T02:25:18.839Z,68.98
2018-10-19T02:25:58.679Z,68.82
2018-10-19T02:26:38.392Z,69.02
2018-10-19T02:27:18.484Z,69.14
2018-10-19T02:27:58.276Z,68.96
2018-10-19T02:28:37.929Z,69.08
2018-10-19T02:29:17.742Z,68.90
2018-10-19T02:29:57.491Z,68.66
2018-10-19T02:30:37.300Z,68.93
2018-10-19T02:31:17.131Z,68.95
2018-10-19T02:31:56.832Z,68.76
2018-10-19T02:32:36.740Z,69.00
2018-10-19T02:33:16.352Z,68.88
2018-10-19T02:33:56.242Z,68.88
2018-10-19T02:34:35.806Z,68.80
2018-10-19T02:35:15.592Z,69.03
2018-10-19T02:35:55.369Z,69.06
2018-10-19T02:36:35.028Z,69.04
2018-10-19T02:37:14.624Z,68.66
2018-10-19T02:37:54.246Z,68.90
2018-10-19T02:38:34.078Z,68.68
2018-10-19T02:39:13.675Z,68.66
2018-10-19T02:39:53.664Z,69.24
2018-10-19T02:40:33.840Z,69.46
2018-10-19T02:41:13.699Z,69.28
2018-10-19T02:41:53.453Z,69.28
2018-10-19T02:42:33.188Z,69.25
2018-10-19T02:43:13.205Z,69.21
2018-10-19T02:43:52.783Z,68.88
2018-10-19T02:44:32.551Z,69.19
2018-10-19T02:45:12.261Z,68.84
2018-10-19T02:45:52.147Z,68.86
2018-10-19T02:46:31.780Z,68.89
2018-10-19T02:47:11.478Z,69.21
2018-10-19T02:47:51.280Z,68.91
2018-10-19T02:48:30.974Z,68.99
2018-10-19T02:49:10.600Z,68.82
2018-10-19T02:49:50.324Z,68.87
2018-10-19T02:50:30.079Z,68.50
2018-10-19T02:51:09.848Z,68.18
2018-10-19T02:51:49.748Z,68.35
2018-10-19T02:52:29.432Z,68.24
2018-10-19T02:53:09.191Z,68.40
2018-10-19T02:53:49.227Z,68.42
2018-10-19T02:54:28.924Z,68.34
2018-10-19T02:55:09.531Z,68.21
2018-10-19T02:55:49.108Z,68.38
2018-10-19T02:56:28.794Z,68.38
2018-10-19T02:57:08.641Z,68.03
2018-10-19T02:57:48.740Z,68.17
2018-10-19T02:58:28.553Z,68.10
2018-10-19T02:59:08.324Z,68.00
2018-10-19T02:59:48.397Z,68.19
2018-10-19T03:00:28.195Z,67.77
2018-10-19T03:01:07.836Z,67.55
2018-10-19T03:01:47.662Z,67.47
2018-10-19T03:02:27.478Z,67.76
2018-10-19T03:03:07.146Z,67.71
2018-10-19T03:03:47.178Z,67.86
2018-10-19T03:04:26.940Z,68.13
2018-10-19T03:05:07.792Z,67.61
2018-10-19T03:05:47.995Z,67.74
2018-10-19T03:06:27.608Z,67.83
2018-10-19T03:07:07.628Z,67.91
2018-10-19T03:07:47.457Z,67.83
2018-10-19T03:08:27.214Z,67.46
2018-10-19T03:09:09.834Z,67.42
2018-10-19T03:09:49.825Z,67.61
2018-10-19T03:10:29.626Z,67.49
2018-10-19T03:11:09.346Z,67.89
2018-10-19T03:11:49.408Z,67.67
2018-10-19T03:12:29.131Z,67.88
2018-10-19T03:13:09.229Z,67.65
2018-10-19T03:13:48.989Z,67.92
2018-10-19T03:14:29.505Z,68.06
2018-10-19T03:15:10.090Z,68.05
2018-10-19T03:15:50.342Z,67.80
2018-10-19T03:16:30.087Z,67.70
2018-10-19T03:17:09.875Z,67.86
2018-10-19T03:17:50.043Z,68.02
2018-10-19T03:18:29.798Z,68.14
2018-10-19T03:19:09.383Z,68.05
2018-10-19T03:19:49.503Z,68.14
2018-10-19T03:20:30.003Z,68.34
2018-10-19T03:21:10.212Z,68.18
2018-10-19T03:21:50.798Z,67.99
2018-10-19T03:22:30.484Z,67.72
2018-10-19T03:23:10.211Z,68.14
2018-10-19T03:23:50.655Z,68.28
2018-10-19T03:24:30.385Z,68.28
2018-10-19T03:25:10.521Z,68.28
2018-10-19T03:25:50.388Z,68.42
2018-10-19T03:26:30.025Z,68.40
2018-10-19T03:27:10.108Z,68.30
2018-10-19T03:27:50.214Z,68.55
2018-10-19T03:28:29.890Z,68.62
2018-10-19T03:29:09.653Z,68.53
2018-10-19T03:29:49.633Z,68.17
2018-10-19T03:30:29.367Z,68.67
2018-10-19T03:31:09.169Z,68.66
2018-10-19T03:31:49.430Z,68.99
2018-10-19T03:32:29.317Z,69.11
2018-10-19T03:33:08.845Z,68.76
2018-10-19T03:33:49.044Z,68.78
2018-10-19T03:34:28.794Z,68.95
2018-10-19T03:35:08.685Z,69.00
2018-10-19T03:35:48.846Z,69.21
2018-10-19T03:36:28.656Z,69.29
2018-10-19T03:37:08.492Z,69.11
2018-10-19T03:37:48.132Z,69.33
2018-10-19T03:38:27.955Z,69.50
2018-10-19T03:39:08.804Z,69.37
2018-10-19T03:39:48.835Z,69.46
2018-10-19T03:40:28.539Z,69.44
2018-10-19T03:41:08.352Z,69.69
2018-10-19T03:41:48.059Z,69.75
2018-10-19T03:42:27.830Z,69.79
2018-10-19T03:43:07.488Z,69.66
2018-10-19T03:43:47.209Z,69.96
2018-10-19T03:44:26.866Z,69.79
2018-10-19T03:45:07.338Z,69.70
2018-10-19T03:45:47.185Z,69.60
2018-10-19T03:46:27.120Z,69.69
2018-10-19T03:47:06.817Z,69.87
2018-10-19T03:47:46.872Z,70.03
2018-10-19T03:48:26.532Z,69.92
2018-10-19T03:49:06.840Z,70.04
2018-10-19T03:49:46.861Z,70.06
2018-10-19T03:50:26.615Z,70.09
2018-10-19T03:51:06.989Z,70.10
2018-10-19T03:51:46.897Z,70.17
2018-10-19T03:52:26.663Z,70.15
2018-10-19T03:53:06.677Z,70.21
2018-10-19T03:53:46.927Z,70.13
2018-10-19T03:54:26.773Z,70.16
2018-10-19T03:55:06.908Z,69.97
2018-10-19T03:55:46.615Z,70.18
2018-10-19T03:56:26.459Z,69.97
2018-10-19T03:57:06.134Z,70.08
2018-10-19T03:57:46.076Z,70.23
2018-10-19T03:58:25.717Z,70.27
2018-10-19T03:59:05.911Z,70.14
2018-10-19T03:59:45.764Z,70.41
2018-10-19T04:00:25.361Z,70.42
2018-10-19T04:01:05.160Z,70.39
2018-10-19T04:01:44.774Z,70.29
2018-10-19T04:02:24.453Z,70.43
2018-10-19T04:03:04.344Z,70.19
2018-10-19T04:03:44.635Z,70.59
2018-10-19T04:04:24.413Z,70.58
2018-10-19T04:05:04.281Z,70.57
2018-10-19T04:05:44.386Z,70.53
2018-10-19T04:06:24.323Z,70.95
2018-10-19T04:07:04.512Z,70.78
2018-10-19T04:07:44.754Z,70.76
2018-10-19T04:08:24.596Z,70.69
2018-10-19T04:09:06.531Z,70.98
2018-10-19T04:09:46.504Z,70.81
2018-10-19T04:10:26.251Z,70.62
2018-10-19T04:11:05.880Z,70.83
2018-10-19T04:11:45.759Z,70.65
2018-10-19T04:12:25.535Z,70.96
2018-10-19T04:13:05.539Z,70.39
2018-10-19T04:13:45.303Z,70.71
2018-10-19T04:14:24.900Z,70.61
2018-10-19T04:15:05.263Z,70.37
2018-10-19T04:15:45.084Z,70.53
2018-10-19T04:16:26.949Z,70.69
2018-10-19T04:17:06.706Z,70.35
2018-10-19T04:17:46.658Z,70.56
2018-10-19T04:18:26.301Z,70.63
2018-10-19T04:19:06.740Z,70.51
2018-10-19T04:19:46.284Z,70.66
2018-10-19T04:20:26.257Z,70.68
2018-10-19T04:21:05.926Z,70.67
2018-10-19T04:21:45.997Z,70.79
2018-10-19T04:22:25.808Z,70.96
2018-10-19T04:23:09.231Z,70.97
2018-10-19T04:23:49.436Z,70.75
2018-10-19T04:24:29.043Z,70.83
2018-10-19T04:25:09.121Z,70.85
2018-10-19T04:25:48.872Z,70.97
2018-10-19T04:26:28.732Z,70.98
2018-10-19T04:27:08.547Z,71.00
2018-10-19T04:27:48.828Z,70.99
2018-10-19T04:28:28.842Z,70.85
2018-10-19T04:29:08.653Z,71.18
2018-10-19T04:29:48.681Z,71.23
2018-10-19T04:30:28.292Z,70.82
2018-10-19T04:31:08.227Z,70.54
2018-10-19T04:31:47.977Z,71.14
2018-10-19T04:32:27.812Z,71.20
2018-10-19T04:33:07.520Z,70.95
2018-10-19T04:33:47.341Z,70.99
2018-10-19T04:34:27.076Z,70.96
2018-10-19T04:35:07.036Z,71.31
2018-10-19T04:35:46.963Z,71.42
2018-10-19T04:36:26.751Z,71.31
2018-10-19T04:37:07.163Z,71.24
2018-10-19T04:37:46.829Z,71.45
2018-10-19T04:38:26.677Z,71.50
2018-10-19T04:39:07.486Z,71.15
2018-10-19T04:39:47.382Z,70.90
2018-10-19T04:40:27.144Z,71.38
2018-10-19T04:41:07.061Z,71.09
2018-10-19T04:41:47.183Z,71.29
2018-10-19T04:42:27.195Z,71.39
2018-10-19T04:43:07.143Z,70.99
2018-10-19T04:43:46.969Z,71.23
2018-10-19T04:44:26.988Z,71.27
2018-10-19T04:45:07.350Z,71.38
2018-10-19T04:45:47.896Z,71.20
2018-10-19T04:46:27.832Z,71.35
2018-10-19T04:47:07.602Z,71.32
2018-10-19T04:47:47.539Z,70.96
2018-10-19T04:48:27.532Z,70.98
2018-10-19T04:49:07.291Z,71.08
2018-10-19T04:49:47.041Z,70.99
2018-10-19T04:50:26.678Z,71.13
2018-10-19T04:51:06.633Z,70.81
2018-10-19T04:51:46.394Z,71.14
2018-10-19T04:52:26.060Z,70.78
2018-10-19T04:53:06.044Z,70.95
2018-10-19T04:53:45.971Z,70.75
2018-10-19T04:54:26.076Z,70.69
2018-10-19T04:55:07.405Z,71.19
2018-10-19T04:55:46.945Z,70.92
2018-10-19T04:56:27.017Z,71.12
2018-10-19T04:57:06.957Z,70.87
2018-10-19T04:57:47.259Z,70.63
2018-10-19T04:58:27.189Z,70.96
2018-10-19T04:59:07.069Z,70.65
2018-10-19T04:59:46.873Z,70.85
2018-10-19T05:00:26.770Z,70.94
2018-10-19T05:01:06.384Z,71.11
2018-10-19T05:01:46.164Z,71.22
2018-10-19T05:02:26.101Z,71.03
2018-10-19T05:03:06.353Z,71.33
2018-10-19T05:03:46.080Z,70.97
2018-10-19T05:04:25.840Z,71.23
2018-10-19T05:05:06.758Z,71.39
2018-10-19T05:05:46.499Z,71.44
2018-10-19T05:06:26.696Z,71.57
2018-10-19T05:07:06.693Z,71.30
2018-10-19T05:07:46.880Z,71.55
2018-10-19T05:08:26.684Z,71.62
2018-10-19T05:09:09.579Z,71.47
2018-10-19T05:09:49.502Z,71.49
2018-10-19T05:10:29.384Z,71.40
2018-10-19T05:11:09.090Z,71.77
2018-10-19T05:11:49.304Z,71.67
2018-10-19T05:12:29.212Z,71.61
2018-10-19T05:13:09.244Z,71.60
2018-10-19T05:13:49.215Z,71.58
2018-10-19T05:14:28.941Z,71.66
2018-10-19T05:15:10.593Z,71.55
2018-10-19T05:15:51.266Z,71.71
2018-10-19T05:16:31.132Z,71.74
2018-10-19T05:17:11.097Z,71.79
2018-10-19T05:17:51.523Z,71.53
2018-10-19T05:18:31.117Z,71.60
2018-10-19T05:19:10.756Z,71.78
2018-10-19T05:19:50.657Z,71.45
2018-10-19T05:20:30.525Z,71.88
2018-10-19T05:21:10.268Z,71.63
2018-10-19T05:21:50.154Z,71.60
2018-10-19T05:22:30.058Z,71.61
2018-10-19T05:23:09.646Z,71.93
2018-10-19T05:23:49.573Z,71.68
2018-10-19T05:24:29.312Z,71.75
2018-10-19T05:25:11.189Z,71.57
2018-10-19T05:25:50.806Z,71.63
2018-10-19T05:26:30.712Z,71.61
2018-10-19T05:27:10.767Z,71.39
2018-10-19T05:27:51.059Z,71.34
2018-10-19T05:28:30.677Z,71.41
2018-10-19T05:29:10.362Z,71.61
2018-10-19T05:29:50.396Z,71.53
2018-10-19T05:30:30.024Z,71.50
2018-10-19T05:31:09.814Z,71.78
2018-10-19T05:31:49.600Z,71.63
2018-10-19T05:32:29.172Z,71.86
2018-10-19T05:33:08.829Z,71.76
2018-10-19T05:33:48.682Z,71.79
2018-10-19T05:34:28.618Z,71.83
2018-10-19T05:35:08.367Z,71.06
2018-10-19T05:35:48.317Z,70.80
2018-10-19T05:36:27.916Z,71.02
2018-10-19T05:37:07.470Z,71.34
2018-10-19T05:37:47.419Z,71.48
2018-10-19T05:38:27.264Z,71.58
2018-10-19T05:39:08.514Z,71.48
2018-10-19T05:39:48.168Z,71.50
2018-10-19T05:40:28.197Z,71.44
2018-10-19T05:41:07.911Z,71.19
2018-10-19T05:41:47.869Z,71.03
2018-10-19T05:42:27.839Z,71.03
2018-10-19T05:43:07.450Z,71.12
2018-10-19T05:43:47.081Z,71.00
2018-10-19T05:44:27.221Z,71.23
2018-10-19T05:45:08.700Z,71.39
2018-10-19T05:45:48.357Z,71.29
2018-10-19T05:46:29.171Z,71.37
2018-10-19T05:47:08.776Z,71.45
2018-10-19T05:47:48.736Z,71.38
2018-10-19T05:48:28.982Z,70.78
2018-10-19T05:49:08.651Z,70.86
2018-10-19T05:49:48.406Z,70.66
2018-10-19T05:50:28.182Z,70.58
2018-10-19T05:51:08.281Z,70.53
2018-10-19T05:51:48.022Z,70.77
2018-10-19T05:52:27.666Z,70.63
2018-10-19T05:53:07.412Z,70.74
2018-10-19T05:53:47.480Z,70.89
2018-10-19T05:54:27.514Z,71.13
2018-10-19T05:55:07.786Z,70.78
2018-10-19T05:55:47.536Z,70.99
2018-10-19T05:56:27.443Z,71.11
2018-10-19T05:57:07.136Z,70.81
2018-10-19T05:57:46.827Z,70.42
2018-10-19T05:58:26.667Z,70.75
2018-10-19T05:59:06.771Z,70.71
2018-10-19T05:59:46.693Z,70.66
2018-10-19T06:00:26.952Z,70.81
2018-10-19T06:01:06.951Z,70.66
2018-10-19T06:01:46.766Z,70.98
2018-10-19T06:02:26.797Z,70.73
2018-10-19T06:03:06.642Z,70.92
2018-10-19T06:03:46.518Z,70.71
2018-10-19T06:04:26.272Z,70.87
2018-10-19T06:05:07.310Z,70.93
2018-10-19T06:05:47.355Z,71.02
2018-10-19T06:06:27.267Z,70.60
2018-10-19T06:07:07.082Z,70.54
2018-10-19T06:07:46.984Z,70.70
2018-10-19T06:08:26.677Z,70.56
2018-10-19T06:09:08.700Z,70.87
2018-10-19T06:09:48.329Z,70.66
2018-10-19T06:10:28.244Z,70.70
2018-10-19T06:11:07.923Z,70.90
2018-10-19T06:11:47.886Z,70.75
2018-10-19T06:12:27.858Z,70.83
2018-10-19T06:13:07.595Z,70.81
2018-10-19T06:13:47.517Z,70.84
2018-10-19T06:14:27.144Z,70.59
2018-10-19T06:15:08.026Z,70.44
2018-10-19T06:15:47.626Z,70.48
2018-10-19T06:16:27.476Z,70.77
2018-10-19T06:17:07.180Z,70.47
2018-10-19T06:17:47.037Z,70.71
2018-10-19T06:18:26.908Z,70.33
2018-10-19T06:19:07.765Z,70.47
2018-10-19T06:19:47.277Z,70.81
2018-10-19T06:20:27.005Z,70.41
2018-10-19T06:21:07.021Z,70.59
2018-10-19T06:21:46.800Z,70.43
2018-10-19T06:22:26.664Z,70.62
2018-10-19T06:23:07.098Z,70.14
2018-10-19T06:23:46.829Z,70.28
2018-10-19T06:24:26.518Z,70.46
2018-10-19T06:25:06.428Z,70.64
2018-10-19T06:25:46.378Z,70.63
2018-10-19T06:26:26.631Z,70.73
2018-10-19T06:27:07.239Z,70.35
2018-10-19T06:27:46.955Z,70.64
2018-10-19T06:28:26.721Z,70.81
2018-10-19T06:29:06.444Z,70.62
2018-10-19T06:29:46.296Z,70.53
2018-10-19T06:30:26.116Z,70.63
2018-10-19T06:31:06.317Z,70.66
2018-10-19T06:31:46.654Z,70.82
2018-10-19T06:32:26.748Z,70.51
2018-10-19T06:33:06.669Z,70.38
2018-10-19T06:33:46.294Z,70.27
2018-10-19T06:34:26.322Z,70.01
2018-10-19T06:35:06.331Z,70.00
2018-10-19T06:35:46.218Z,69.77
2018-10-19T06:36:26.802Z,70.10
2018-10-19T06:37:06.497Z,69.60
2018-10-19T06:37:46.440Z,69.69
2018-10-19T06:38:26.152Z,69.96
2018-10-19T06:39:08.923Z,69.86
2018-10-19T06:39:48.447Z,70.14
2018-10-19T06:40:28.092Z,70.15
2018-10-19T06:41:07.946Z,70.19
2018-10-19T06:41:48.318Z,69.63
2018-10-19T06:42:28.207Z,69.39
2018-10-19T06:43:08.068Z,69.75
2018-10-19T06:43:47.651Z,69.58
2018-10-19T06:44:27.577Z,69.12
2018-10-19T06:45:07.507Z,68.88
2018-10-19T06:45:47.164Z,69.17
2018-10-19T06:46:27.577Z,68.96
2018-10-19T06:47:07.788Z,69.47
2018-10-19T06:47:47.730Z,69.46
2018-10-19T06:48:27.452Z,69.33
2018-10-19T06:49:07.294Z,69.52
2018-10-19T06:49:47.260Z,69.62
2018-10-19T06:50:27.091Z,69.59
2018-10-19T06:51:06.753Z,69.86
2018-10-19T06:51:46.505Z,69.97
2018-10-19T06:52:26.260Z,69.87
2018-10-19T06:53:06.696Z,69.65
2018-10-19T06:53:46.566Z,69.33
2018-10-19T06:54:26.919Z,69.45
2018-10-19T06:55:08.484Z,69.12
2018-10-19T06:55:48.198Z,69.16
2018-10-19T06:56:28.522Z,69.28
2018-10-19T06:57:08.158Z,68.80
2018-10-19T06:57:48.068Z,68.68
2018-10-19T06:58:27.639Z,68.56
2018-10-19T06:59:07.369Z,68.83
2018-10-19T06:59:47.446Z,68.33
2018-10-19T07:00:27.266Z,68.21
2018-10-19T07:01:07.100Z,68.25
2018-10-19T07:01:46.864Z,68.13
2018-10-19T07:02:26.712Z,68.25
2018-10-19T07:03:07.252Z,68.57
2018-10-19T07:03:47.515Z,68.53
2018-10-19T07:04:27.342Z,68.29
2018-10-19T07:05:07.107Z,68.26
2018-10-19T07:05:47.434Z,67.79
2018-10-19T07:06:27.546Z,68.00
2018-10-19T07:07:07.348Z,67.66
2018-10-19T07:07:47.220Z,67.71
2018-10-19T07:08:27.465Z,67.67
2018-10-19T07:09:08.741Z,67.87
2018-10-19T07:09:48.815Z,67.48
2018-10-19T07:10:28.388Z,67.37
2018-10-19T07:11:08.295Z,67.50
2018-10-19T07:11:48.044Z,67.76
2018-10-19T07:12:27.736Z,67.99
2018-10-19T07:13:07.970Z,68.56
2018-10-19T07:13:47.494Z,68.36
2018-10-19T07:14:27.205Z,68.46
2018-10-19T07:15:08.020Z,68.54
2018-10-19T07:15:47.696Z,68.11
2018-10-19T07:16:27.871Z,68.39
2018-10-19T07:17:07.591Z,67.98
2018-10-19T07:17:47.385Z,67.80
2018-10-19T07:18:27.062Z,67.99
2018-10-19T07:19:07.194Z,68.05
2018-10-19T07:19:47.093Z,67.61
2018-10-19T07:20:26.798Z,67.89
2018-10-19T07:21:06.443Z,67.86
2018-10-19T07:21:46.236Z,67.79
2018-10-19T07:22:26.038Z,68.04
2018-10-19T07:23:06.220Z,67.87
2018-10-19T07:23:46.244Z,67.64
2018-10-19T07:24:25.949Z,67.87
2018-10-19T07:25:05.992Z,67.00
2018-10-19T07:25:45.497Z,66.76
2018-10-19T07:26:25.220Z,66.96
2018-10-19T07:27:05.288Z,66.78
2018-10-19T07:27:44.910Z,67.04
2018-10-19T07:28:24.771Z,67.19
2018-10-19T07:29:05.067Z,66.97
2018-10-19T07:29:45.054Z,66.61
2018-10-19T07:30:24.887Z,66.62
2018-10-19T07:31:04.461Z,65.93
2018-10-19T07:31:44.157Z,66.38
2018-10-19T07:32:23.995Z,66.71
2018-10-19T07:33:03.933Z,67.05
2018-10-19T07:33:43.588Z,66.85
2018-10-19T07:34:23.452Z,67.11
2018-10-19T07:35:03.176Z,67.20
2018-10-19T07:35:43.146Z,67.07
2018-10-19T07:36:24.310Z,67.00
2018-10-19T07:37:05.350Z,67.02
2018-10-19T07:37:45.940Z,66.44
2018-10-19T07:39:06.825Z,66.97
2018-10-19T07:39:47.200Z,66.75
2018-10-19T07:40:27.476Z,66.45
2018-10-19T07:41:07.852Z,66.67
2018-10-19T07:41:47.894Z,66.78
2018-10-19T07:42:28.456Z,67.03
2018-10-19T07:43:08.461Z,66.65
2018-10-19T07:43:48.704Z,66.41
2018-10-19T07:44:29.174Z,66.13
2018-10-19T07:45:08.800Z,66.23
2018-10-19T07:45:48.862Z,66.41
2018-10-19T07:46:29.678Z,66.27
2018-10-19T07:47:09.810Z,66.44
2018-10-19T07:47:50.363Z,65.65
2018-10-19T07:48:30.798Z,65.49
2018-10-19T07:49:11.432Z,65.62
2018-10-19T07:49:52.038Z,65.92
2018-10-19T07:50:32.440Z,65.94
2018-10-19T07:51:12.263Z,65.90
2018-10-19T07:51:52.600Z,66.09
2018-10-19T07:52:33.131Z,65.60
2018-10-19T07:53:12.831Z,65.69
2018-10-19T07:53:53.277Z,65.44
2018-10-19T07:54:33.831Z,65.65
2018-10-19T07:55:13.763Z,65.56
2018-10-19T07:55:54.212Z,65.66
2018-10-19T07:56:34.900Z,65.92
2018-10-19T07:57:15.156Z,65.91
2018-10-19T07:57:54.909Z,65.80
2018-10-19T07:58:35.257Z,65.59
2018-10-19T07:59:15.138Z,65.79
2018-10-19T07:59:55.568Z,65.89
2018-10-19T08:00:35.934Z,65.73
2018-10-19T08:01:16.537Z,65.31
2018-10-19T08:01:56.943Z,65.09
2018-10-19T08:02:37.435Z,65.19
2018-10-19T08:03:17.713Z,64.86
2018-10-19T08:03:58.116Z,64.88
2018-10-19T08:04:38.592Z,65.18
2018-10-19T08:05:18.793Z,64.97
2018-10-19T08:05:59.187Z,64.85
2018-10-19T08:06:39.505Z,64.76
2018-10-19T08:07:19.977Z,64.62
2018-10-19T08:07:59.783Z,64.59
2018-10-19T08:08:40.258Z,64.72
2018-10-19T08:09:20.868Z,64.39
2018-10-19T08:10:01.049Z,64.45
2018-10-19T08:10:41.283Z,64.36
2018-10-19T08:11:21.720Z,64.39
2018-10-19T08:12:02.251Z,64.41
2018-10-19T08:12:42.540Z,64.78
2018-10-19T08:13:23.577Z,64.52
2018-10-19T08:14:04.059Z,64.42
2018-10-19T08:14:44.420Z,64.58
2018-10-19T08:15:24.964Z,64.48
2018-10-19T08:16:05.484Z,64.68
2018-10-19T08:16:46.180Z,64.58
2018-10-19T08:17:26.737Z,63.93
2018-10-19T08:18:07.441Z,63.99
2018-10-19T08:18:47.824Z,64.17
2018-10-19T08:19:28.633Z,63.81
2018-10-19T08:20:10.081Z,64.05
2018-10-19T08:20:50.705Z,64.09
2018-10-19T08:21:31.120Z,63.62
2018-10-19T08:22:11.362Z,63.89
2018-10-19T08:22:51.830Z,64.08
2018-10-19T08:23:32.124Z,63.75
2018-10-19T08:24:12.536Z,63.73
2018-10-19T08:24:53.805Z,63.68
2018-10-19T08:25:34.051Z,63.32
2018-10-19T08:26:14.398Z,63.36
2018-10-19T08:26:54.936Z,62.97
2018-10-19T08:27:35.252Z,62.76
2018-10-19T08:28:15.706Z,62.53
2018-10-19T08:28:56.265Z,62.40
2018-10-19T08:29:36.530Z,62.07
2018-10-19T08:30:16.901Z,61.93
2018-10-19T08:30:57.250Z,62.08
2018-10-19T08:31:37.448Z,61.99
2018-10-19T08:32:17.835Z,62.07
2018-10-19T08:32:58.417Z,62.17
2018-10-19T08:33:38.603Z,62.04
2018-10-19T08:34:18.975Z,62.51
2018-10-19T08:34:59.220Z,62.24
2018-10-19T08:35:39.692Z,61.86